createdAt,value
2019-04-10T00:01:38.265Z,30.40
2019-04-10T00:04:07.667Z,32.03
2019-04-10T00:06:37.582Z,32.75
2019-04-10T00:09:08.225Z,32.83
2019-04-10T00:11:37.884Z,33.48
2019-04-10T00:14:08.282Z,31.60
2019-04-10T00:16:38.321Z,32.55
2019-04-10T00:19:08.711Z,32.15
2019-04-10T00:21:38.377Z,31.95
2019-04-10T00:24:08.029Z,34.80
2019-04-10T00:26:39.523Z,32.55
2019-04-10T00:29:08.910Z,32.83
2019-04-10T00:31:38.238Z,35.05
2019-04-10T00:34:07.604Z,33.88
2019-04-10T00:36:39.409Z,35.75
2019-04-10T00:39:10.616Z,36.40
2019-04-10T00:41:40.684Z,35.43
2019-04-10T00:44:11.164Z,31.50
2019-04-10T00:46:40.931Z,31.30
2019-04-10T00:49:10.341Z,31.80
2019-04-10T00:51:39.686Z,31.40
2019-04-10T00:54:09.835Z,32.30
2019-04-10T00:56:39.266Z,33.63
2019-04-10T00:59:08.894Z,35.73
2019-04-10T01:01:38.791Z,30.85
2019-04-10T01:04:08.085Z,36.42
2019-04-10T01:06:37.857Z,32.58
2019-04-10T01:09:09.082Z,32.93
2019-04-10T01:11:39.237Z,36.45
2019-04-10T01:14:09.554Z,34.65
2019-04-10T01:16:39.774Z,32.10
2019-04-10T01:19:09.979Z,33.75
2019-04-10T01:21:39.340Z,33.45
2019-04-10T01:24:09.053Z,34.67
2019-04-10T01:26:39.124Z,33.42
2019-04-10T01:29:09.270Z,34.08
2019-04-10T01:31:39.404Z,33.63
2019-04-10T01:34:09.427Z,34.95
2019-04-10T01:36:39.481Z,34.43
2019-04-10T01:39:10.565Z,35.50
2019-04-10T01:41:39.908Z,34.40
2019-04-10T01:44:09.165Z,37.42
2019-04-10T01:46:38.721Z,33.90
2019-04-10T01:49:09.306Z,37.20
2019-04-10T01:51:39.350Z,33.78
2019-04-10T01:54:09.035Z,35.38
2019-04-10T01:56:39.635Z,33.63
2019-04-10T01:59:09.746Z,36.48
2019-04-10T02:01:58.990Z,35.65
2019-04-10T02:04:28.941Z,39.48
2019-04-10T02:06:58.267Z,38.48
2019-04-10T02:09:27.655Z,39.75
2019-04-10T02:11:57.021Z,33.90
2019-04-10T02:14:26.337Z,36.55
2019-04-10T02:16:55.656Z,35.85
2019-04-10T02:19:25.981Z,38.95
2019-04-10T02:21:56.100Z,36.50
2019-04-10T02:24:25.486Z,36.70
2019-04-10T02:26:56.021Z,39.10
2019-04-10T02:29:25.938Z,40.70
2019-04-10T02:31:57.155Z,38.38
2019-04-10T02:34:26.584Z,39.30
2019-04-10T02:36:55.959Z,42.20
2019-04-10T02:39:32.005Z,39.55
2019-04-10T02:41:56.428Z,38.78
2019-04-10T02:44:28.282Z,40.33
2019-04-10T02:46:59.435Z,37.23
2019-04-10T02:49:28.253Z,39.83
2019-04-10T02:51:58.888Z,39.63
2019-04-10T02:54:29.052Z,35.58
2019-04-10T02:56:58.648Z,42.88
2019-04-10T02:59:29.176Z,38.60
2019-04-10T03:02:00.336Z,37.10
2019-04-10T03:04:31.065Z,39.50
2019-04-10T03:07:02.176Z,39.90
2019-04-10T03:09:49.533Z,40.20
2019-04-10T03:12:03.763Z,38.25
2019-04-10T03:14:34.598Z,34.78
2019-04-10T03:17:03.998Z,36.42
2019-04-10T03:19:33.761Z,36.85
2019-04-10T03:22:04.180Z,37.13
2019-04-10T03:24:33.467Z,41.80
2019-04-10T03:27:03.697Z,32.88
2019-04-10T03:29:33.191Z,33.55
2019-04-10T03:32:22.764Z,35.95
2019-04-10T03:34:54.826Z,31.87
2019-04-10T03:37:28.528Z,35.17
2019-04-10T03:39:57.933Z,33.80
2019-04-10T03:42:27.252Z,34.00
2019-04-10T03:44:56.964Z,32.65
2019-04-10T03:47:27.190Z,31.45
2019-04-10T03:49:56.578Z,34.90
2019-04-10T03:52:25.832Z,28.87
2019-04-10T03:54:55.201Z,31.35
2019-04-10T03:57:24.682Z,30.85
2019-04-10T03:59:54.021Z,27.95
2019-04-10T04:02:24.001Z,26.05
2019-04-10T04:04:53.795Z,29.40
2019-04-10T04:07:25.981Z,26.02
2019-04-10T04:09:54.260Z,25.77
2019-04-10T04:12:23.542Z,25.32
2019-04-10T04:14:52.899Z,27.70
2019-04-10T04:17:22.269Z,22.70
2019-04-10T04:19:52.587Z,22.52
2019-04-10T04:22:22.968Z,24.00
2019-04-10T04:24:52.454Z,25.75
2019-04-10T04:27:21.877Z,22.30
2019-04-10T04:29:52.240Z,23.83
2019-04-10T04:32:21.830Z,21.97
2019-04-10T04:34:52.155Z,23.22
2019-04-10T04:37:23.215Z,24.12
2019-04-10T04:39:52.509Z,23.70
2019-04-10T04:42:22.362Z,22.70
2019-04-10T04:44:52.116Z,23.22
2019-04-10T04:47:22.307Z,20.27
2019-04-10T04:49:52.333Z,24.57
2019-04-10T04:52:21.918Z,19.23
2019-04-10T04:54:51.189Z,24.45
2019-04-10T04:57:20.541Z,19.75
2019-04-10T04:59:50.478Z,19.30
2019-04-10T05:02:20.019Z,18.73
2019-04-10T05:04:51.412Z,17.17
2019-04-10T05:07:20.993Z,22.48
2019-04-10T05:09:50.507Z,20.05
2019-04-10T05:12:20.310Z,17.12
2019-04-10T05:14:49.668Z,17.30
2019-04-10T05:17:19.993Z,21.20
2019-04-10T05:19:50.289Z,17.32
2019-04-10T05:22:19.676Z,18.25
2019-04-10T05:24:48.969Z,16.10
2019-04-10T05:27:18.440Z,17.48
2019-04-10T05:29:47.715Z,19.70
2019-04-10T05:32:17.853Z,17.32
2019-04-10T05:34:47.309Z,17.15
2019-04-10T05:37:16.801Z,18.57
2019-04-10T05:39:50.619Z,14.05
2019-04-10T05:42:17.257Z,15.43
2019-04-10T05:44:46.527Z,15.58
2019-04-10T05:47:15.827Z,15.58
2019-04-10T05:49:45.287Z,14.75
2019-04-10T05:52:14.786Z,16.35
2019-04-10T05:54:44.160Z,13.35
2019-04-10T05:57:13.462Z,18.25
2019-04-10T05:59:43.865Z,17.07
2019-04-10T06:02:13.862Z,13.15
2019-04-10T06:04:43.336Z,15.95
2019-04-10T06:07:14.947Z,13.75
2019-04-10T06:09:54.097Z,12.63
2019-04-10T06:12:16.085Z,11.70
2019-04-10T06:14:46.308Z,12.90
2019-04-10T06:17:16.421Z,11.80
2019-04-10T06:19:46.773Z,14.58
2019-04-10T06:22:16.711Z,12.47
2019-04-10T06:24:46.773Z,12.95
2019-04-10T06:27:16.457Z,15.98
2019-04-10T06:29:51.663Z,13.10
2019-04-10T06:32:22.677Z,16.95
2019-04-10T06:34:52.034Z,16.75
2019-04-10T06:37:21.986Z,15.60
2019-04-10T06:39:51.455Z,14.10
2019-04-10T06:42:20.884Z,16.80
2019-04-10T06:44:50.293Z,13.90
2019-04-10T06:47:20.282Z,13.53
2019-04-10T06:49:50.737Z,20.15
2019-04-10T06:52:20.668Z,15.72
2019-04-10T06:54:51.038Z,16.05
2019-04-10T06:57:20.832Z,19.40
2019-04-10T06:59:50.485Z,13.98
2019-04-10T07:02:27.100Z,12.78
2019-04-10T07:04:54.888Z,14.13
2019-04-10T07:07:25.245Z,12.75
2019-04-10T07:09:55.158Z,15.78
2019-04-10T07:12:30.076Z,14.85
2019-04-10T07:14:58.279Z,18.20
2019-04-10T07:17:29.145Z,17.57
2019-04-10T07:19:59.677Z,13.70
2019-04-10T07:22:31.101Z,15.13
2019-04-10T07:25:00.761Z,14.20
2019-04-10T07:27:33.612Z,14.05
2019-04-10T07:30:01.714Z,15.05
2019-04-10T07:32:32.293Z,15.58
2019-04-10T07:35:02.939Z,13.98
2019-04-10T07:37:33.969Z,12.68
2019-04-10T07:40:05.952Z,13.03
2019-04-10T07:42:39.838Z,14.03
2019-04-10T07:45:07.669Z,13.83
2019-04-10T07:47:37.986Z,11.40
2019-04-10T07:50:10.290Z,12.73
2019-04-10T07:52:39.687Z,15.80
2019-04-10T07:55:09.043Z,14.87
2019-04-10T07:57:38.636Z,14.40
2019-04-10T08:00:11.095Z,13.53
2019-04-10T08:02:42.808Z,14.33
2019-04-10T08:05:13.935Z,14.50
2019-04-10T08:07:43.378Z,13.32
2019-04-10T08:10:12.965Z,15.40
2019-04-10T08:12:47.770Z,14.18
2019-04-10T08:15:13.438Z,11.65
2019-04-10T08:17:42.793Z,15.28
2019-04-10T08:20:14.180Z,13.85
2019-04-10T08:22:43.482Z,14.90
2019-04-10T08:25:14.294Z,16.02
2019-04-10T08:27:43.841Z,17.40
2019-04-10T08:30:13.364Z,14.50
2019-04-10T08:32:53.305Z,17.07
2019-04-10T08:35:15.361Z,15.43
2019-04-10T08:37:46.108Z,14.63
2019-04-10T08:40:15.788Z,15.45
2019-04-10T08:42:46.646Z,15.78
2019-04-10T08:45:16.898Z,13.48
2019-04-10T08:47:46.195Z,13.98
2019-04-10T08:50:15.540Z,13.60
2019-04-10T08:52:44.907Z,13.20
2019-04-10T08:55:14.267Z,16.48
2019-04-10T08:57:45.820Z,17.07
2019-04-10T09:00:16.497Z,14.78
2019-04-10T09:02:46.471Z,15.80
2019-04-10T09:05:15.780Z,13.72
2019-04-10T09:07:46.398Z,16.20
2019-04-10T09:10:16.445Z,15.05
2019-04-10T09:12:45.855Z,13.60
2019-04-10T09:15:16.036Z,14.90
2019-04-10T09:17:47.257Z,16.48
2019-04-10T09:20:16.662Z,13.10
2019-04-10T09:23:10.310Z,15.08
2019-04-10T09:25:17.876Z,17.77
2019-04-10T09:27:47.616Z,13.62
2019-04-10T09:30:16.987Z,12.55
2019-04-10T09:32:46.602Z,15.05
2019-04-10T09:35:16.465Z,15.10
2019-04-10T09:37:46.306Z,12.07
2019-04-10T09:40:16.358Z,13.32
2019-04-10T09:42:46.020Z,15.85
2019-04-10T09:45:15.760Z,10.90
2019-04-10T09:47:45.840Z,12.75
2019-04-10T09:50:15.473Z,11.57
2019-04-10T09:52:46.134Z,11.88
2019-04-10T09:55:16.008Z,14.50
2019-04-10T09:57:45.445Z,17.67
2019-04-10T10:00:15.229Z,13.58
2019-04-10T10:02:45.691Z,11.78
2019-04-10T10:05:15.200Z,12.07
2019-04-10T10:07:45.211Z,12.85
2019-04-10T10:10:15.052Z,11.93
2019-04-10T10:12:45.052Z,11.12
2019-04-10T10:15:14.650Z,12.45
2019-04-10T10:17:44.555Z,17.23
2019-04-10T10:20:15.370Z,13.80
2019-04-10T10:22:45.362Z,13.40
2019-04-10T10:25:15.725Z,12.85
2019-04-10T10:27:45.057Z,15.25
2019-04-10T10:30:15.566Z,12.03
2019-04-10T10:32:45.568Z,14.43
2019-04-10T10:35:16.780Z,11.90
2019-04-10T10:37:48.469Z,13.45
2019-04-10T10:40:19.204Z,11.80
2019-04-10T10:42:50.327Z,11.93
2019-04-10T10:45:20.852Z,15.00
2019-04-10T10:47:50.619Z,14.83
2019-04-10T10:50:22.092Z,14.80
2019-04-10T10:52:52.117Z,12.55
2019-04-10T10:55:21.557Z,11.75
2019-04-10T10:57:51.261Z,13.60
2019-04-10T11:00:21.632Z,12.07
2019-04-10T11:02:51.900Z,12.95
2019-04-10T11:05:21.379Z,13.98
2019-04-10T11:07:51.529Z,12.15
2019-04-10T11:10:24.450Z,12.43
2019-04-10T11:12:53.548Z,13.25
2019-04-10T11:15:23.895Z,17.32
2019-04-10T11:17:53.849Z,13.43
2019-04-10T11:20:24.107Z,11.50
2019-04-10T11:22:53.783Z,12.55
2019-04-10T11:25:23.794Z,14.80
2019-04-10T11:27:53.950Z,11.12
2019-04-10T11:30:24.884Z,12.47
2019-04-10T11:32:54.922Z,14.35
2019-04-10T11:35:24.384Z,14.55
2019-04-10T11:40:27.867Z,13.93
2019-04-10T11:42:58.094Z,12.93
2019-04-10T11:45:37.971Z,14.83
2019-04-10T11:48:02.287Z,12.75
2019-04-10T11:50:32.663Z,13.13
2019-04-10T11:53:04.398Z,13.50
2019-04-10T11:58:05.567Z,14.85
2019-04-10T12:05:47.971Z,13.30
2019-04-10T12:13:19.741Z,11.80
2019-04-10T12:15:50.382Z,13.03
2019-04-10T12:18:20.055Z,13.45
2019-04-10T12:20:49.461Z,14.40
2019-04-10T12:23:19.103Z,13.72
2019-04-10T12:25:49.385Z,12.65
2019-04-10T12:28:20.125Z,16.60
2019-04-10T12:30:49.424Z,11.45
2019-04-10T12:33:19.137Z,12.50
2019-04-10T12:35:48.564Z,14.05
2019-04-10T12:38:19.309Z,12.60
2019-04-10T12:40:49.419Z,13.50
2019-04-10T12:43:18.821Z,15.35
2019-04-10T12:45:48.607Z,13.90
2019-04-10T12:48:19.264Z,12.35
2019-04-10T12:50:49.517Z,14.98
2019-04-10T12:53:19.169Z,12.95
2019-04-10T12:55:49.413Z,10.60
2019-04-10T12:58:19.307Z,14.73
2019-04-10T13:00:52.049Z,11.10
2019-04-10T13:03:21.437Z,12.30
2019-04-10T13:05:51.537Z,9.73
2019-04-10T13:08:28.811Z,11.00
2019-04-10T13:10:54.017Z,11.68
2019-04-10T13:13:24.255Z,12.20
2019-04-10T13:15:54.146Z,12.75
2019-04-10T13:18:24.454Z,9.58
2019-04-10T13:20:54.078Z,12.53
2019-04-10T13:23:24.547Z,12.85
2019-04-10T13:25:59.172Z,10.95
2019-04-10T13:28:25.545Z,11.20
2019-04-10T13:30:56.425Z,8.65
2019-04-10T13:33:26.727Z,9.45
2019-04-10T13:35:56.173Z,10.78
2019-04-10T13:38:30.917Z,10.60
2019-04-10T13:40:56.708Z,10.18
2019-04-10T13:43:26.127Z,11.73
2019-04-10T13:45:56.280Z,10.05
2019-04-10T13:48:25.677Z,10.30
2019-04-10T13:50:54.992Z,11.18
2019-04-10T13:53:24.270Z,11.80
2019-04-10T13:55:54.700Z,11.53
2019-04-10T13:58:26.509Z,9.35
2019-04-10T14:00:55.391Z,11.33
2019-04-10T14:03:25.938Z,10.38
2019-04-10T14:05:55.527Z,11.90
2019-04-10T14:08:36.795Z,11.00
2019-04-10T14:10:57.229Z,10.70
2019-04-10T14:13:27.579Z,13.72
2019-04-10T14:15:58.000Z,15.18
2019-04-10T14:18:28.527Z,17.50
2019-04-10T14:20:57.814Z,13.28
2019-04-10T14:23:28.716Z,14.78
2019-04-10T14:26:00.625Z,9.80
2019-04-10T14:28:31.633Z,11.43
2019-04-10T14:31:02.733Z,11.68
2019-04-10T14:33:33.554Z,10.72
2019-04-10T14:36:03.425Z,9.38
2019-04-10T14:38:33.060Z,11.20
2019-04-10T14:41:03.290Z,11.25
2019-04-10T14:43:33.136Z,13.18
2019-04-10T14:46:02.817Z,13.38
2019-04-10T14:48:32.405Z,15.00
2019-04-10T14:51:01.890Z,12.50
2019-04-10T14:53:33.131Z,10.95
2019-04-10T14:56:02.533Z,13.48
2019-04-10T14:58:32.884Z,14.55
2019-04-10T15:01:06.929Z,10.15
2019-04-10T15:03:34.644Z,11.33
2019-04-10T15:06:05.000Z,12.28
2019-04-10T15:08:35.629Z,13.80
2019-04-10T15:11:05.071Z,12.95
2019-04-10T15:13:36.024Z,29.63
2019-04-10T15:16:07.054Z,13.20
2019-04-10T15:18:37.174Z,11.88
2019-04-10T15:21:07.006Z,13.08
2019-04-10T15:23:36.612Z,10.15
2019-04-10T15:26:06.066Z,13.85
2019-04-10T15:28:36.446Z,13.72
2019-04-10T15:31:06.712Z,14.40
2019-04-10T15:33:37.085Z,12.73
2019-04-10T15:36:09.367Z,10.35
2019-04-10T15:38:39.736Z,11.68
2019-04-10T15:41:09.244Z,14.07
2019-04-10T15:43:39.947Z,10.58
2019-04-10T15:46:09.425Z,10.72
2019-04-10T15:48:38.747Z,9.60
2019-04-10T15:51:08.149Z,13.18
2019-04-10T15:53:37.641Z,12.43
2019-04-10T15:56:08.103Z,10.95
2019-04-10T15:58:37.489Z,9.98
2019-04-10T16:01:08.479Z,8.95
2019-04-10T16:03:38.696Z,12.28
2019-04-10T16:06:08.267Z,9.95
2019-04-10T16:08:38.613Z,12.53
2019-04-10T16:11:21.970Z,10.18
2019-04-10T16:13:53.132Z,10.80
2019-04-10T16:16:36.933Z,10.55
2019-04-10T16:19:24.626Z,9.70
2019-04-10T16:21:56.338Z,9.05
2019-04-10T16:24:27.026Z,11.25
2019-04-10T16:26:56.547Z,10.65
2019-04-10T16:29:26.740Z,10.28
2019-04-10T16:31:56.607Z,9.65
2019-04-10T16:34:26.872Z,8.38
2019-04-10T16:36:57.727Z,8.53
2019-04-10T16:39:27.896Z,8.95
2019-04-10T16:41:57.934Z,9.03
2019-04-10T16:44:27.492Z,7.58
2019-04-10T16:46:57.439Z,9.03
2019-04-10T16:49:26.856Z,11.05
2019-04-10T16:51:59.010Z,8.83
2019-04-10T16:54:29.227Z,7.78
2019-04-10T16:57:00.377Z,13.48
2019-04-10T16:59:30.048Z,7.15
2019-04-10T17:02:01.793Z,11.55
2019-04-10T17:04:31.923Z,9.28
2019-04-10T17:07:01.301Z,11.75
2019-04-10T17:09:30.888Z,11.43
2019-04-10T17:12:01.078Z,8.80
2019-04-10T17:14:31.410Z,7.00
2019-04-10T17:17:02.039Z,11.08
2019-04-10T17:19:45.611Z,8.87
2019-04-10T17:22:04.767Z,8.55
2019-04-10T17:24:34.140Z,10.03
2019-04-10T17:27:05.021Z,8.45
2019-04-10T17:29:34.866Z,10.10
2019-04-10T17:32:04.767Z,8.95
2019-04-10T17:34:34.743Z,9.28
2019-04-10T17:37:05.430Z,10.58
2019-04-10T17:39:35.584Z,9.33
2019-04-10T17:42:06.171Z,10.43
2019-04-10T17:44:35.974Z,7.03
2019-04-10T17:47:09.459Z,7.45
2019-04-10T17:49:39.033Z,6.50
2019-04-10T17:52:10.304Z,7.28
2019-04-10T17:54:41.184Z,7.77
2019-04-10T17:57:10.777Z,6.55
2019-04-10T17:59:40.733Z,5.55
2019-04-10T18:02:11.995Z,7.15
2019-04-10T18:04:42.171Z,9.50
2019-04-10T18:07:12.141Z,8.18
2019-04-10T18:09:41.753Z,6.83
2019-04-10T18:12:12.139Z,5.60
2019-04-10T18:14:44.034Z,6.22
2019-04-10T18:17:14.503Z,9.25
2019-04-10T18:19:44.151Z,6.12
2019-04-10T18:22:14.293Z,6.92
2019-04-10T18:24:43.919Z,8.83
2019-04-10T18:27:14.279Z,7.67
2019-04-10T18:29:43.757Z,7.53
2019-04-10T18:32:13.846Z,6.12
2019-04-10T18:34:44.451Z,10.38
2019-04-10T18:37:16.580Z,9.53
2019-04-10T18:39:44.978Z,9.23
2019-04-10T18:42:14.296Z,8.58
2019-04-10T18:44:44.672Z,12.75
2019-04-10T18:47:14.275Z,9.05
2019-04-10T18:49:43.764Z,12.45
2019-04-10T18:52:13.025Z,11.33
2019-04-10T18:54:43.522Z,10.50
2019-04-10T18:57:13.663Z,11.88
2019-04-10T18:59:44.932Z,10.15
2019-04-10T19:02:32.853Z,10.28
2019-04-10T19:05:04.143Z,7.97
2019-04-10T19:07:34.680Z,8.68
2019-04-10T19:10:04.283Z,9.55
2019-04-10T19:12:34.752Z,9.40
2019-04-10T19:15:06.560Z,9.63
2019-04-10T19:17:37.196Z,9.05
2019-04-10T19:20:07.688Z,10.43
2019-04-10T19:22:38.126Z,12.20
2019-04-10T19:25:08.268Z,7.37
2019-04-10T19:27:38.050Z,8.38
2019-04-10T19:30:10.969Z,8.15
2019-04-10T19:32:41.492Z,9.83
2019-04-10T19:35:11.105Z,9.80
2019-04-10T19:37:40.864Z,8.08
2019-04-10T19:40:11.301Z,12.37
2019-04-10T19:42:41.789Z,9.05
2019-04-10T19:45:12.056Z,11.63
2019-04-10T19:47:42.254Z,8.53
2019-04-10T19:50:12.971Z,7.65
2019-04-10T19:52:42.482Z,12.28
2019-04-10T19:55:12.097Z,9.90
2019-04-10T19:57:41.648Z,9.23
2019-04-10T20:00:12.530Z,9.35
2019-04-10T20:02:42.054Z,9.98
2019-04-10T20:05:11.744Z,12.00
2019-04-10T20:07:43.041Z,8.98
2019-04-10T20:10:13.151Z,12.05
2019-04-10T20:12:42.678Z,9.73
2019-04-10T20:15:12.219Z,13.35
2019-04-10T20:17:41.719Z,9.08
2019-04-10T20:20:11.515Z,9.88
2019-04-10T20:22:41.845Z,14.35
2019-04-10T20:25:12.392Z,8.80
2019-04-10T20:27:42.489Z,11.83
2019-04-10T20:30:12.417Z,9.25
2019-04-10T20:32:42.030Z,10.55
2019-04-10T20:35:11.908Z,9.20
2019-04-10T20:37:41.454Z,12.85
2019-04-10T20:40:11.889Z,9.85
2019-04-10T20:42:42.499Z,10.20
2019-04-10T20:45:12.129Z,11.45
2019-04-10T20:47:41.610Z,11.97
2019-04-10T20:50:12.006Z,13.10
2019-04-10T20:52:41.444Z,10.18
2019-04-10T20:55:11.297Z,11.35
2019-04-10T20:57:40.766Z,12.10
2019-04-10T21:00:13.696Z,12.30
2019-04-10T21:02:43.044Z,9.95
2019-04-10T21:05:14.848Z,10.50
2019-04-10T21:07:45.970Z,14.15
2019-04-10T21:10:15.455Z,12.10
2019-04-10T21:12:44.706Z,13.10
2019-04-10T21:15:14.197Z,10.93
2019-04-10T21:17:43.855Z,10.53
2019-04-10T21:20:13.690Z,11.40
2019-04-10T21:22:43.137Z,13.30
2019-04-10T21:25:12.653Z,10.72
2019-04-10T21:27:42.005Z,12.28
2019-04-10T21:30:15.990Z,11.10
2019-04-10T21:33:03.867Z,11.20
2019-04-10T21:35:37.130Z,11.90
2019-04-10T21:38:06.883Z,11.60
2019-04-10T21:40:36.244Z,14.70
2019-04-10T21:43:06.050Z,12.03
2019-04-10T21:45:35.556Z,9.93
2019-04-10T21:48:04.854Z,12.47
2019-04-10T21:50:35.525Z,12.00
2019-04-10T21:53:06.136Z,14.53
2019-04-10T21:55:35.589Z,12.05
2019-04-10T21:58:05.966Z,11.38
2019-04-10T22:00:53.231Z,17.55
2019-04-10T22:03:23.251Z,11.12
2019-04-10T22:06:11.304Z,10.68
2019-04-10T22:08:48.302Z,13.03
2019-04-10T22:11:19.035Z,12.03
2019-04-10T22:13:50.614Z,14.00
2019-04-10T22:16:22.047Z,13.18
2019-04-10T22:18:51.973Z,12.10
2019-04-10T22:21:22.770Z,15.28
2019-04-10T22:23:53.143Z,13.15
2019-04-10T22:26:22.459Z,15.80
2019-04-10T22:28:52.779Z,14.93
2019-04-10T22:31:22.131Z,12.68
2019-04-10T22:33:52.364Z,16.82
2019-04-10T22:36:22.826Z,15.58
2019-04-10T22:38:52.327Z,14.55
2019-04-10T22:41:28.640Z,17.02
2019-04-10T22:43:53.063Z,15.40
2019-04-10T22:46:22.413Z,18.65
2019-04-10T22:48:51.729Z,14.58
2019-04-10T22:51:21.405Z,17.37
2019-04-10T22:53:51.226Z,15.88
2019-04-10T22:56:20.978Z,15.10
2019-04-10T22:58:51.138Z,15.50
2019-04-10T23:01:20.771Z,15.32
2019-04-10T23:03:51.311Z,16.67
2019-04-10T23:06:20.854Z,17.23
2019-04-10T23:08:50.249Z,14.87
2019-04-10T23:11:30.434Z,16.77
2019-04-10T23:13:51.121Z,17.92
2019-04-10T23:16:20.459Z,15.63
2019-04-10T23:18:49.838Z,16.65
2019-04-10T23:21:20.658Z,17.35
2019-04-10T23:23:50.087Z,18.27
2019-04-10T23:26:20.731Z,17.48
2019-04-10T23:28:51.726Z,17.62
2019-04-10T23:31:21.586Z,19.07
2019-04-10T23:33:50.997Z,18.42
2019-04-10T23:36:20.309Z,15.45
2019-04-10T23:38:50.631Z,16.17
2019-04-10T23:41:21.128Z,16.25
2019-04-10T23:43:51.534Z,15.58
2019-04-10T23:46:22.145Z,17.62
2019-04-10T23:48:51.567Z,17.12
2019-04-10T23:51:21.159Z,18.32
2019-04-10T23:53:50.975Z,18.10
2019-04-10T23:56:21.629Z,19.75
2019-04-10T23:58:52.708Z,17.48
